»·PEaware :: DAL213 KDEN-KASE

DAL213 :: KDEN-KASE

FLIGHT INFORMATION

Flight Status: Arrived
Operator:
Delta Air Lines
More flights by this operator :: More flights under this callsign
Pilot: Nicolas L. (9332)
Aircraft: BOEING 737-800
(B738)
More flights by this aircraft type
Origin: KDEN Denver Intl
United States
Destination: KASE Aspen-Pitkin Co/Sardy
United States
More flights between these airports :: More routes between these airports
Route: +CONNR4 DBL
File this flight plan on PilotEdge
Remarks: Live Streaming on Twith "DAL213" and YT
Altitude:
(Current/Filed)
18,000ft
Speed:
(Current/Filed)
400kts
Departed: 08-May-18 09:23 PM
Arrived: 08-May-18 09:57 PM
Distance/Time
Traveled:
109nm/0:34
Distance/Time
To Go:
Arrived

Flight Plot

Page will automatically refresh every two minutes.

Flight plan parsing failed; only flown route is shown


Map Options




Map Legend


Flown Route
Filed Route
Departure Airport
Arrival Airport
Navaid (VOR, NDB)
Fix

Horizontal Profiles

Position Reports

Time Latitude Longitude Heading Altitude Ground
Speed
08-May-18 21:09 39.853470 -104.678084 64 5440ft 0kts
08-May-18 21:10 39.853470 -104.678084 64 5440ft 0kts
08-May-18 21:11 39.853470 -104.678084 64 5440ft 0kts
08-May-18 21:12 39.853470 -104.678084 64 5440ft 0kts
08-May-18 21:13 39.853470 -104.678084 64 5440ft 0kts
08-May-18 21:14 39.853470 -104.678084 64 5440ft 0kts
08-May-18 21:15 39.853379 -104.678472 85 5440ft 2kts
08-May-18 21:16 39.853376 -104.678541 88 5440ft 0kts
08-May-18 21:17 39.853376 -104.678541 88 5440ft 0kts
08-May-18 21:18 39.852892 -104.678528 239 5440ft 7kts
08-May-18 21:19 39.852154 -104.683010 250 5440ft 13kts
08-May-18 21:20 39.849116 -104.684062 179 5440ft 11kts
08-May-18 21:21 39.844304 -104.684122 180 5440ft 15kts
08-May-18 21:22 39.841609 -104.684147 180 5440ft 5kts
08-May-18 21:23 39.840757 -104.709076 266 5481ft 177kts
08-May-18 21:24 39.841061 -104.784471 268 8016ft 247kts
08-May-18 21:25 39.838966 -104.885598 267 10096ft 314kts
08-May-18 21:26 39.836643 -105.007189 263 13020ft 338kts
08-May-18 21:27 39.813078 -105.125416 258 16589ft 343kts
08-May-18 21:28 39.786633 -105.249300 258 18008ft 366kts
08-May-18 21:29 39.759520 -105.377542 258 18117ft 369kts
08-May-18 21:30 39.731885 -105.506672 258 18253ft 371kts
08-May-18 21:31 39.705009 -105.635819 259 18329ft 370kts
08-May-18 21:32 39.687746 -105.766446 265 18372ft 367kts
08-May-18 21:33 39.673412 -105.897993 265 18367ft 367kts
08-May-18 21:34 39.658760 -106.028805 265 18346ft 361kts
08-May-18 21:35 39.645435 -106.146396 265 18253ft 306kts
08-May-18 21:36 39.633051 -106.255030 265 18201ft 305kts
08-May-18 21:37 39.610716 -106.361690 252 18188ft 312kts
08-May-18 21:38 39.577647 -106.466133 251 18130ft 312kts
08-May-18 21:39 39.544276 -106.570115 251 18042ft 313kts
08-May-18 21:40 39.510802 -106.674055 251 17998ft 313kts
08-May-18 21:41 39.477078 -106.778393 251 17846ft 310kts
08-May-18 21:42 39.435473 -106.873857 219 16122ft 310kts
08-May-18 21:43 39.360124 -106.912703 226 16330ft 275kts
08-May-18 21:44 39.366990 -106.994582 330 16565ft 265kts
08-May-18 21:45 39.424869 -106.959496 73 15139ft 280kts
08-May-18 21:46 39.478575 -106.926586 316 14157ft 264kts
08-May-18 21:47 39.526849 -106.996433 309 13986ft 256kts
08-May-18 21:48 39.586103 -107.023683 39 14000ft 275kts
08-May-18 21:49 39.606107 -106.926504 83 13960ft 285kts
08-May-18 21:50 39.554240 -106.863425 172 13968ft 276kts
08-May-18 21:51 39.478977 -106.867766 191 13273ft 265kts
08-May-18 21:52 39.405104 -106.879229 178 13080ft 267kts
08-May-18 21:53 39.333478 -106.878882 185 11968ft 253kts
08-May-18 21:54 39.271393 -106.867324 166 10970ft 201kts
08-May-18 21:55 39.224600 -106.841781 143 9623ft 157kts
08-May-18 21:56 39.199860 -106.853637 304 8402ft 153kts
08-May-18 21:57 39.224795 -106.869649 338 7745ft 18kts
08-May-18 21:58 39.224134 -106.868095 153 7745ft 8kts
08-May-18 21:59 39.223994 -106.867566 71 7745ft 0kts
08-May-18 22:00 39.223994 -106.867566 71 7745ft 0kts
08-May-18 22:01 39.223994 -106.867566 71 7745ft 0kts
08-May-18 22:02 39.223994 -106.867566 71 7745ft 0kts
08-May-18 22:03 39.223994 -106.867566 71 7745ft 0kts
08-May-18 22:04 39.223994 -106.867566 71 7745ft 0kts
08-May-18 22:05 39.223994 -106.867566 71 7745ft 0kts

Navigation Log

Ident Type
Flight plan parsing failed, navigation log unavailable